Time;durP1;ratioP1;P1;durP2;ratioP2;P2;SDS_P1;SDS_P2;PMS_P1;PMS_P2;Temp;Humidity;BMP_temperature;BMP_pressure;BME280_temperature;BME280_humidity;BME280_pressure;Samples;Min_cycle;Max_cycle;Signal;HPM_P1;HPM_P2
2023/03/02 04:49:58;;;;;;;;;;;;;;;;;;;;;
2023/03/02 06:33:56;;;;;;;315.70;44.05;;;1.10;99.90;;;;;;6053782;22;4195852;-84
2023/03/02 06:51:49;;;;;;;;;;;;;;;;;;;;;
2023/03/02 06:58:25;;;;;;;462.48;47.50;;;1.50;99.90;;;;;;6030010;23;20026;-84
2023/03/02 07:01:18;;;;;;;382.33;45.42;;;1.50;99.90;;;;;;6010244;23;20124;-84
2023/03/02 07:04:38;;;;;;;275.33;46.95;;;1.60;99.90;;;;;;5984199;23;20047;-85
2023/03/02 07:15:14;;;;;;;;;;;;;;;;;;;;;
2023/03/02 07:18:07;;;;;;;272.23;40.85;;;1.60;99.90;;;;;;6018101;23;20022;-84
2023/03/02 07:20:34;;;;;;;255.70;41.72;;;1.50;99.90;;;;;;6033990;23;20340;-84
2023/03/02 07:23:36;;;;;;;271.90;36.00;;;1.00;99.90;;;;;;5986469;23;20077;-84
2023/03/02 07:36:56;;;;;;;185.10;38.08;;;1.40;99.90;;;;;;5893184;24;20107;-87
2023/03/02 07:39:25;;;;;;;255.23;41.03;;;1.70;99.90;;;;;;5872761;24;20953;-85
2023/03/02 07:41:51;;;;;;;216.88;37.35;;;1.30;99.90;;;;;;5919030;24;20307;-87
2023/03/02 07:44:16;;;;;;;305.23;43.47;;;1.40;99.90;;;;;;5925358;24;20113;-83
2023/03/02 07:46:47;;;;;;;216.68;39.30;;;1.60;99.90;;;;;;5937242;24;20009;-87
2023/03/02 07:49:26;;;;;;;211.00;40.50;;;1.50;99.90;;;;;;5898959;24;20024;-86
2023/03/02 07:52:03;;;;;;;192.50;40.05;;;1.40;99.90;;;;;;5863922;24;20013;-86
2023/03/02 07:55:09;;;;;;;336.45;41.03;;;1.70;99.90;;;;;;5912721;24;20017;-87
2023/03/02 08:01:08;;;;;;;167.05;36.67;;;1.90;99.90;;;;;;5977540;23;20059;-86
2023/03/02 08:04:22;;;;;;;;;;;;;;;;;;;;;
2023/03/02 08:20:52;;;;;;;115.93;37.25;;;1.40;99.90;;;;;;6214603;22;20024;-85
2023/03/02 08:23:27;;;;;;;153.05;37.08;;;1.50;99.90;;;;;;6091228;23;20065;-84
2023/03/02 08:25:54;;;;;;;108.88;36.95;;;2.00;99.90;;;;;;6065234;23;20018;-82
2023/03/02 08:28:21;;;;;;;111.00;35.13;;;1.90;99.90;;;;;;6067913;23;20576;-85
2023/03/02 08:30:57;;;;;;;108.43;36.20;;;1.70;99.90;;;;;;6068357;23;20029;-84
2023/03/02 08:33:24;;;;;;;144.52;33.78;;;1.70;99.90;;;;;;6068196;23;20103;-85
2023/03/02 08:36:07;;;;;;;131.13;34.10;;;2.70;99.90;;;;;;6067192;23;20022;-81
2023/03/02 08:38:39;;;;;;;99.85;34.35;;;2.40;99.90;;;;;;6066053;23;20659;-82
2023/03/02 08:41:44;;;;;;;130.45;37.35;;;1.90;99.90;;;;;;6065317;23;20018;-82
2023/03/02 08:47:59;;;;;;;72.13;32.92;;;2.20;99.90;;;;;;6096650;23;20097;-84
2023/03/02 08:50:28;;;;;;;66.40;32.25;;;2.50;99.90;;;;;;6068853;23;20204;-84
2023/03/02 09:05:26;;;;;;;;;;;;;;;;;;;;;
2023/03/02 09:21:08;;;;;;;43.45;23.85;;;3.50;99.90;;;;;;6269546;22;20020;-84
2023/03/02 09:23:36;;;;;;;43.97;23.50;;;3.40;99.90;;;;;;6275338;22;20008;-88
2023/03/02 09:29:51;;;;;;;44.05;25.05;;;3.20;99.90;;;;;;6272444;22;20434;-83
2023/03/02 09:32:48;;;;;;;40.83;23.67;;;2.90;99.90;;;;;;6221110;22;20012;-84
2023/03/02 09:35:25;;;;;;;45.22;24.25;;;3.30;99.90;;;;;;6152454;23;20029;-82
2023/03/02 09:38:22;;;;;;;39.17;21.40;;;3.50;99.90;;;;;;6123705;23;20013;-84
2023/03/02 09:41:06;;;;;;;39.65;22.75;;;3.40;99.90;;;;;;6087456;23;20104;-85
2023/03/02 09:44:09;;;;;;;38.08;22.35;;;3.00;99.90;;;;;;6099340;23;20421;-83
2023/03/02 09:47:17;;;;;;;36.67;21.25;;;3.00;99.90;;;;;;6099642;23;20017;-84
2023/03/02 09:50:09;;;;;;;40.47;23.02;;;3.30;99.90;;;;;;6099108;23;20013;-83
2023/03/02 09:52:58;;;;;;;41.72;23.02;;;2.70;99.90;;;;;;6099567;23;20075;-83
2023/03/02 09:59:47;;;;;;;39.85;23.08;;;3.10;99.90;;;;;;6122827;23;20419;-83
2023/03/02 10:03:10;;;;;;;43.00;22.60;;;3.00;99.90;;;;;;6099227;23;20087;-83
2023/03/02 10:05:44;;;;;;;34.95;20.60;;;3.00;99.90;;;;;;6095531;23;20496;-83
2023/03/02 10:08:21;;;;;;;40.50;22.58;;;2.80;99.90;;;;;;6188244;23;20019;-85
2023/03/02 10:11:16;;;;;;;;;;;;;;;;;;;;;
2023/03/02 10:15:30;;;;;;;;;;;;;;;;;;;;;
2023/03/02 10:19:16;;;;;;;36.10;19.80;;;2.50;99.90;;;;;;6098396;23;20022;-86
2023/03/02 10:24:58;;;;;;;33.65;18.48;;;2.60;99.90;;;;;;6001241;23;20031;-82
2023/03/02 10:28:27;;;;;;;32.78;18.17;;;3.10;99.90;;;;;;5157015;27;20107;-83
2023/03/02 10:31:23;;;;;;;32.85;19.27;;;3.40;99.90;;;;;;5129580;27;20047;-83
2023/03/02 10:33:54;;;;;;;34.22;18.08;;;3.20;99.90;;;;;;5076781;28;20596;-85
2023/03/02 10:39:50;;;;;;;28.58;16.50;;;3.70;99.90;;;;;;5101684;28;20541;-83
2023/03/02 10:45:44;;;;;;;30.92;19.15;;;4.10;99.90;;;;;;5020139;28;20044;-84
2023/03/02 10:48:52;;;;;;;31.25;18.95;;;4.10;99.90;;;;;;5007718;28;20057;-85
2023/03/02 10:59:44;;;;;;;28.58;17.90;;;3.90;99.90;;;;;;4955034;28;20045;-86
2023/03/02 11:03:04;;;;;;;27.17;18.15;;;3.60;99.90;;;;;;4860909;29;20185;-85
2023/03/02 11:05:59;;;;;;;26.50;15.98;;;3.80;99.90;;;;;;4841595;29;20089;-86
2023/03/02 11:12:30;;;;;;;24.15;14.55;;;3.90;99.90;;;;;;4851725;29;20077;-88
2023/03/02 11:16:09;;;;;;;25.20;15.98;;;4.00;99.90;;;;;;4831218;29;20056;-86
2023/03/02 11:24:14;;;;;;;25.73;16.10;;;3.70;99.90;;;;;;4842425;29;20098;-85
2023/03/02 11:27:04;;;;;;;26.58;16.63;;;4.10;99.90;;;;;;4815260;29;20078;-83
2023/03/02 11:29:56;;;;;;;24.00;14.85;;;4.40;99.90;;;;;;4836281;29;20049;-84
2023/03/02 11:33:24;;;;;;;19.92;12.93;;;4.30;99.90;;;;;;4846769;29;20085;-83
2023/03/02 11:36:11;;;;;;;23.13;14.60;;;4.70;99.90;;;;;;4832570;29;20061;-83
2023/03/02 11:39:10;;;;;;;22.90;14.80;;;4.60;99.90;;;;;;4843392;29;20653;-85
2023/03/02 11:42:43;;;;;;;22.95;14.93;;;4.90;99.90;;;;;;4854238;29;20162;-85
2023/03/02 11:46:22;;;;;;;23.05;15.50;;;4.70;99.90;;;;;;4850369;29;20163;-84
2023/03/02 11:49:23;;;;;;;22.25;14.07;;;4.60;99.90;;;;;;4787337;29;20058;-84
2023/03/02 11:52:41;;;;;;;22.33;14.88;;;5.00;99.90;;;;;;4815254;29;20085;-84
2023/03/02 11:55:28;;;;;;;22.85;15.18;;;4.70;99.90;;;;;;4814769;29;20047;-84
2023/03/02 11:58:23;;;;;;;27.20;16.63;;;5.20;99.90;;;;;;4813931;29;20100;-84
2023/03/02 12:01:26;;;;;;;;;;;;;;;;;;;;;
2023/03/02 12:04:31;;;;;;;26.63;16.60;;;4.90;99.90;;;;;;4852167;29;20065;-83
2023/03/02 12:07:48;;;;;;;25.98;17.08;;;5.20;99.90;;;;;;4867592;29;20580;-85
2023/03/02 12:10:45;;;;;;;24.70;16.02;;;5.20;99.90;;;;;;4868051;29;20055;-84
2023/03/02 12:13:57;;;;;;;22.73;15.35;;;5.30;99.90;;;;;;4858851;29;20133;-83
2023/03/02 12:16:45;;;;;;;23.63;15.25;;;4.80;99.90;;;;;;4898161;29;20060;-84
2023/03/02 12:22:50;;;;;;;25.67;16.92;;;5.00;99.90;;;;;;4956652;28;20555;-85
2023/03/02 12:29:49;;;;;;;22.25;14.40;;;5.60;99.90;;;;;;4986053;28;20110;-85
2023/03/02 12:32:29;;;;;;;27.58;16.65;;;5.20;99.90;;;;;;4969864;28;20386;-84
2023/03/02 12:35:20;;;;;;;26.67;16.77;;;4.80;99.90;;;;;;4987259;28;20046;-83
2023/03/02 12:37:52;;;;;;;25.75;16.05;;;5.10;99.90;;;;;;4954388;28;20047;-83
2023/03/02 12:41:24;;;;;;;28.02;16.30;;;5.30;99.90;;;;;;4947704;28;20464;-85
2023/03/02 12:44:00;;;;;;;25.98;16.00;;;5.50;99.90;;;;;;4972889;28;20086;-84
2023/03/02 12:46:46;;;;;;;27.60;16.67;;;5.50;99.90;;;;;;4942601;28;20115;-85
2023/03/02 12:50:29;;;;;;;;;;;;;;;;;;;;;
2023/03/02 12:53:07;;;;;;;21.80;15.52;;;5.50;99.90;;;;;;4956316;28;20054;-84
2023/03/02 12:55:44;;;;;;;25.25;15.95;;;5.50;99.90;;;;;;4953682;28;20078;-84
2023/03/02 12:58:23;;;;;;;25.85;15.65;;;5.80;99.90;;;;;;4974807;28;20147;-84
2023/03/02 13:01:04;;;;;;;25.80;16.42;;;5.70;99.90;;;;;;5059335;28;20101;-83
2023/03/02 13:04:00;;;;;;;23.35;15.73;;;5.60;99.90;;;;;;5038464;28;20049;-84
2023/03/02 13:06:47;;;;;;;25.42;16.35;;;5.30;99.90;;;;;;5041809;28;20063;-85
2023/03/02 13:10:18;;;;;;;25.05;15.57;;;5.50;99.90;;;;;;5011097;28;20333;-85
2023/03/02 13:13:47;;;;;;;22.85;15.57;;;5.50;99.90;;;;;;5008416;28;20617;-83
2023/03/02 13:16:24;;;;;;;20.58;14.82;;;5.50;99.90;;;;;;4984669;28;20066;-83
2023/03/02 13:19:39;;;;;;;22.33;15.80;;;5.30;99.90;;;;;;4984414;28;20088;-82
2023/03/02 13:30:46;;;;;;;21.92;15.55;;;5.20;99.90;;;;;;4896172;29;20075;-83
2023/03/02 14:01:13;;;;;;;23.52;16.55;;;5.60;99.90;;;;;;4951041;28;20057;-83
2023/03/02 14:04:54;;;;;;;22.63;15.98;;;5.70;99.90;;;;;;4933680;28;20142;-83
2023/03/02 14:08:48;;;;;;;;;;;;;;;;;;;;;
2023/03/02 14:11:46;;;;;;;17.00;12.88;;;6.00;99.90;;;;;;4904395;29;20095;-85
2023/03/02 14:14:40;;;;;;;21.70;15.00;;;6.00;99.90;;;;;;4903473;29;20058;-85
2023/03/02 14:17:15;;;;;;;23.08;16.50;;;6.20;99.90;;;;;;4898662;29;20142;-84
2023/03/02 14:19:51;;;;;;;;;;;6.10;99.90;;;;;;4923720;28;20051;-85
2023/03/02 14:22:21;;;;;;;;;;;6.10;99.90;;;;;;4917331;29;20034;-85
2023/03/02 14:24:50;;;;;;;23.13;15.45;;;6.10;99.90;;;;;;4928234;28;19966;-86
2023/03/02 14:27:35;;;;;;;24.25;17.05;;;6.20;99.90;;;;;;4938821;28;20059;-85
2023/03/02 14:37:19;;;;;;;21.48;16.05;;;6.20;99.90;;;;;;4919116;29;20043;-83
2023/03/02 14:39:54;;;;;;;20.55;14.82;;;6.20;99.90;;;;;;4909411;28;20056;-84
2023/03/02 14:43:56;;;;;;;;;;;;;;;;;;;;;
2023/03/02 14:50:00;;;;;;;21.98;14.43;;;6.20;99.90;;;;;;4900638;29;20044;-83
2023/03/02 14:52:37;;;;;;;22.50;15.70;;;6.20;99.90;;;;;;4891493;29;20052;-84
2023/03/02 14:55:13;;;;;;;18.98;14.18;;;6.10;99.90;;;;;;4891848;29;20044;-83
2023/03/02 14:58:17;;;;;;;19.48;13.82;;;6.20;99.90;;;;;;4905327;29;20088;-85
2023/03/02 15:00:43;;;;;;;20.25;14.80;;;6.30;99.90;;;;;;4903774;29;20075;-84
2023/03/02 15:03:36;;;;;;;20.63;16.40;;;6.10;99.90;;;;;;4885014;29;20099;-85
2023/03/02 15:06:36;;;;;;;24.60;16.90;;;6.30;99.90;;;;;;4888401;29;20555;-85
2023/03/02 15:23:53;;;;;;;24.10;17.25;;;6.10;99.90;;;;;;4998935;28;20133;-84
2023/03/02 15:30:35;;;;;;;30.63;19.88;;;5.80;99.90;;;;;;5051746;28;20388;-83
2023/03/02 15:41:36;;;;;;;28.80;20.60;;;5.70;99.90;;;;;;4832401;29;20060;-82
2023/03/02 16:26:49;;;;;;;17.52;12.27;;;6.00;99.90;;;;;;6206051;22;1300650;-82
2023/03/02 16:37:37;;;;;;;17.48;12.65;;;5.50;99.90;;;;;;6276656;22;20025;-83
2023/03/02 16:40:06;;;;;;;17.35;11.73;;;5.70;99.90;;;;;;6249633;23;20004;-83
2023/03/02 16:42:32;;;;;;;18.75;11.88;;;5.40;99.90;;;;;;6274736;22;20027;-84
2023/03/02 16:45:13;;;;;;;17.25;11.35;;;5.60;99.90;;;;;;6249585;22;20008;-83
2023/03/02 16:50:55;;;;;;;19.63;11.65;;;4.60;99.90;;;;;;6129933;23;20017;-86
2023/03/02 16:53:25;;;;;;;18.40;11.95;;;4.50;99.90;;;;;;6101398;23;20021;-83
2023/03/02 16:56:27;;;;;;;18.30;12.05;;;4.80;99.90;;;;;;6098996;23;20426;-83
2023/03/02 17:03:12;;;;;;;21.00;11.63;;;4.10;99.90;;;;;;5932975;24;20028;-86
2023/03/02 17:05:52;;;;;;;23.30;12.52;;;4.10;99.90;;;;;;5923882;24;20082;-84
2023/03/02 17:26:26;;;;;;;17.42;12.02;;;4.00;99.90;;;;;;6205807;23;20178;-84
2023/03/02 17:43:52;;;;;;;20.50;11.40;;;3.70;99.90;;;;;;6213432;23;20416;-82
2023/03/02 17:46:31;;;;;;;19.98;12.02;;;3.00;99.90;;;;;;6179038;23;20012;-84
2023/03/02 17:49:23;;;;;;;16.05;10.48;;;3.50;99.90;;;;;;6162284;23;20071;-83
2023/03/02 17:56:05;;;;;;;17.70;10.52;;;3.00;99.90;;;;;;6037665;23;20033;-83
2023/03/02 17:58:44;;;;;;;17.77;11.23;;;2.90;99.90;;;;;;6040354;23;20018;-84
2023/03/02 18:01:27;;;;;;;21.90;11.88;;;3.20;99.90;;;;;;6040669;23;20014;-83
2023/03/02 18:35:37;;;;;;;19.95;12.20;;;2.90;99.90;;;;;;6247014;23;20053;-84
2023/03/02 18:38:41;;;;;;;21.38;12.95;;;2.50;99.90;;;;;;6225104;23;20028;-82
2023/03/02 18:41:25;;;;;;;21.33;12.73;;;3.00;99.90;;;;;;6195256;23;20056;-83
2023/03/02 18:58:14;;;;;;;24.85;13.65;;;3.00;99.90;;;;;;6074049;23;20042;-83
2023/03/02 19:01:03;;;;;;;24.27;14.32;;;2.40;99.90;;;;;;6075101;23;20021;-85
2023/03/02 19:03:47;;;;;;;25.92;14.70;;;2.40;99.90;;;;;;6074491;23;20339;-83
2023/03/02 19:06:54;;;;;;;27.92;15.85;;;2.90;99.90;;;;;;6090027;23;20022;-85
2023/03/02 19:16:59;;;;;;;24.63;15.55;;;2.60;99.90;;;;;;5901698;24;20055;-84
2023/03/02 19:22:58;;;;;;;29.85;16.13;;;2.60;99.90;;;;;;5884927;24;20077;-85
2023/03/02 19:25:49;;;;;;;32.30;17.15;;;2.30;99.90;;;;;;5917070;24;20013;-83
2023/03/02 19:28:26;;;;;;;29.98;16.20;;;2.50;99.90;;;;;;5888568;24;20026;-84
2023/03/02 19:31:10;;;;;;;30.38;17.55;;;2.50;99.90;;;;;;5917016;24;20057;-84
2023/03/02 19:33:48;;;;;;;33.67;18.15;;;2.90;99.90;;;;;;5916140;24;20009;-85
2023/03/02 19:36:25;;;;;;;33.03;20.10;;;2.40;99.90;;;;;;5925179;24;20017;-84
2023/03/02 19:39:05;;;;;;;34.33;19.50;;;2.40;99.90;;;;;;5960127;24;20755;-84
2023/03/02 19:41:44;;;;;;;38.22;21.17;;;2.90;99.90;;;;;;5953964;24;20023;-85
2023/03/02 19:44:31;;;;;;;50.78;24.10;;;2.60;99.90;;;;;;5976162;24;20047;-84
2023/03/02 19:47:03;;;;;;;59.40;25.63;;;2.90;99.90;;;;;;5984850;23;20117;-83
2023/03/02 19:49:57;;;;;;;55.33;26.38;;;3.00;99.90;;;;;;6186128;22;20076;-82
2023/03/02 19:53:13;;;;;;;57.58;26.10;;;2.40;99.90;;;;;;6072825;23;20021;-83
2023/03/02 19:56:55;;;;;;;50.33;24.45;;;3.10;99.90;;;;;;6120114;23;20010;-84
2023/03/02 20:03:47;;;;;;;52.45;24.67;;;2.50;99.90;;;;;;6034615;23;20387;-84
2023/03/02 20:06:29;;;;;;;42.00;22.05;;;2.70;99.90;;;;;;6034094;23;20523;-84
2023/03/02 20:09:22;;;;;;;45.33;23.08;;;2.70;99.90;;;;;;6039960;23;20514;-85
2023/03/02 20:12:04;;;;;;;;;;;;;;;;;;;;;
2023/03/02 20:15:24;;;;;;;46.55;23.40;;;2.30;99.90;;;;;;6061727;23;20435;-84
2023/03/02 20:26:29;;;;;;;;;;;;;;;;;;;;;
2023/03/02 20:29:46;;;;;;;59.78;26.27;;;3.00;99.90;;;;;;5980629;23;20103;-84
2023/03/02 20:51:53;;;;;;;78.60;30.10;;;2.60;99.90;;;;;;6002191;23;20080;-82
2023/03/02 21:08:37;;;;;;;111.22;32.15;;;2.20;99.90;;;;;;5927240;22;8440653;-83
2023/03/02 21:11:07;;;;;;;113.28;32.25;;;2.80;99.90;;;;;;6231016;22;20039;-82
2023/03/02 21:13:37;;;;;;;107.20;33.45;;;2.40;99.90;;;;;;6254005;22;20011;-84
2023/03/02 21:16:06;;;;;;;125.78;33.30;;;2.40;99.90;;;;;;6251553;22;20023;-82
2023/03/02 21:18:49;;;;;;;158.90;34.15;;;2.80;99.90;;;;;;6227155;22;20030;-83
2023/03/02 21:21:18;;;;;;;151.27;34.90;;;2.70;99.90;;;;;;6279757;22;20012;-82
2023/03/02 21:23:49;;;;;;;124.05;33.92;;;2.50;99.90;;;;;;6250787;22;20104;-83
2023/03/02 21:26:26;;;;;;;126.32;35.38;;;2.40;99.90;;;;;;6222543;22;20015;-82
2023/03/02 21:29:37;;;;;;;112.68;33.55;;;3.00;99.90;;;;;;6253871;22;20117;-81
2023/03/02 21:32:36;;;;;;;114.70;34.40;;;2.50;99.90;;;;;;6193248;23;20020;-83
2023/03/02 21:35:35;;;;;;;102.50;33.95;;;2.90;99.90;;;;;;6211613;23;20023;-82
2023/03/02 21:38:18;;;;;;;76.78;30.15;;;2.40;99.90;;;;;;6187689;23;20075;-82
2023/03/02 21:40:57;;;;;;;89.00;29.88;;;2.60;99.90;;;;;;6184837;23;20048;-82
2023/03/02 21:43:33;;;;;;;100.75;32.15;;;2.80;99.90;;;;;;6213620;23;20027;-82
2023/03/02 21:46:00;;;;;;;120.60;29.85;;;3.00;99.90;;;;;;6212200;23;20544;-81
2023/03/02 21:48:31;;;;;;;131.77;30.15;;;2.80;99.90;;;;;;6187195;23;20494;-82
2023/03/02 21:50:57;;;;;;;154.98;29.98;;;2.70;99.90;;;;;;6189247;23;20051;-83
2023/03/02 21:53:23;;;;;;;99.95;30.35;;;2.70;99.90;;;;;;6189767;23;20016;-83
2023/03/02 21:55:54;;;;;;;102.22;29.55;;;2.70;99.90;;;;;;6188445;23;20024;-82
2023/03/02 21:58:20;;;;;;;106.72;32.45;;;2.50;99.90;;;;;;6213844;23;20056;-82
2023/03/02 22:00:46;;;;;;;98.60;31.88;;;2.60;99.90;;;;;;6212058;23;20094;-82
2023/03/02 22:03:13;;;;;;;87.15;29.38;;;3.00;99.90;;;;;;6187918;23;20106;-82
2023/03/02 22:05:40;;;;;;;174.52;30.65;;;2.80;99.90;;;;;;6193582;22;20008;-82
2023/03/02 22:08:06;;;;;;;138.65;31.10;;;2.50;99.90;;;;;;6217818;23;20425;-83
2023/03/02 22:10:41;;;;;;;163.90;31.52;;;2.50;99.90;;;;;;6214663;23;20030;-82
2023/03/02 22:13:13;;;;;;;238.52;29.92;;;2.60;99.90;;;;;;6214500;23;20444;-81
2023/03/02 22:16:21;;;;;;;274.50;34.67;;;3.30;99.90;;;;;;6214614;23;20441;-82
2023/03/02 22:19:16;;;;;;;207.80;32.88;;;2.60;99.90;;;;;;6153564;22;20164;-82
2023/03/02 22:21:48;;;;;;;179.85;29.48;;;2.70;99.90;;;;;;6152888;23;20013;-83
2023/03/02 22:24:31;;;;;;;191.40;31.45;;;2.40;99.90;;;;;;6178482;23;20290;-81
2023/03/02 22:27:25;;;;;;;206.20;31.42;;;2.90;99.90;;;;;;6151984;23;20112;-81
2023/03/02 22:29:59;;;;;;;154.35;31.55;;;2.50;99.90;;;;;;6176235;23;20048;-81
2023/03/02 22:35:48;;;;;;;;;;;;;;;;;;;;;
2023/03/02 22:42:35;;;;;;;;;;;3.10;99.90;;;;;;6001361;23;20023;-83
2023/03/02 22:45:58;;;;;;;167.45;30.77;;;3.20;99.90;;;;;;5951961;23;19949;-83
2023/03/02 22:49:18;;;;;;;221.90;30.15;;;3.00;99.90;;;;;;5974716;23;20214;-83
2023/03/02 23:15:56;;;;;;;234.45;27.73;;;2.70;99.90;;;;;;5901166;22;7566050;-83
2023/03/02 23:18:35;;;;;;;264.58;28.27;;;3.20;99.90;;;;;;6135654;23;20171;-82
2023/03/02 23:21:16;;;;;;;236.05;26.90;;;2.60;99.90;;;;;;6152548;23;20342;-81
2023/03/02 23:23:59;;;;;;;170.27;25.25;;;2.60;99.90;;;;;;6105302;23;20636;-82
2023/03/02 23:26:43;;;;;;;278.40;27.60;;;2.90;99.90;;;;;;6131166;23;20096;-83
2023/03/02 23:29:34;;;;;;;298.83;28.70;;;3.10;99.90;;;;;;6157828;23;20026;-82
2023/03/02 23:32:05;;;;;;;303.00;27.45;;;2.60;99.90;;;;;;6127775;23;20508;-83
2023/03/02 23:35:01;;;;;;;283.45;27.63;;;3.00;99.90;;;;;;6157098;23;20022;-82
2023/03/02 23:37:57;;;;;;;241.40;26.65;;;2.40;99.90;;;;;;6132886;23;20088;-83
2023/03/02 23:40:35;;;;;;;187.35;25.65;;;2.90;99.90;;;;;;6131470;23;20469;-82
2023/03/02 23:43:26;;;;;;;275.38;28.02;;;2.50;99.90;;;;;;6130124;23;20051;-81
2023/03/02 23:46:00;;;;;;;201.20;24.77;;;2.40;99.90;;;;;;6071957;23;20104;-81
2023/03/02 23:48:37;;;;;;;233.98;24.88;;;2.70;99.90;;;;;;6048725;23;20315;-82
2023/03/02 23:51:09;;;;;;;246.65;24.83;;;2.80;99.90;;;;;;6045868;23;20018;-81
2023/03/02 23:54:04;;;;;;;311.42;26.25;;;2.80;99.90;;;;;;6049894;23;20014;-82
2023/03/02 23:56:53;;;;;;;257.40;27.15;;;2.70;99.90;;;;;;6049441;23;20018;-83
2023/03/02 23:59:57;;;;;;;353.85;29.63;;;2.40;99.90;;;;;;6072319;23;20018;-83
